Observations for BOSCOMBE DOWN, United Kingdom (EGDM)

EGDM 180250Z AUTO 15005KT 0550 FG OVC001/// 05/05 Q1021 
EGDM 180150Z AUTO 14005KT 4000 BR BKN001/// 04/04 Q1022 
EGDM 180050Z AUTO 15004KT 1700 FEW003/// BKN015/// BKN060/// 03/02 Q1022
EGDM 172350Z AUTO 16006KT 1800 BKN004/// 04/04 Q1022
EGDM 172250Z AUTO 15006KT 7000 BR OVC005/// 04/04 Q1022 
EGDM 172150Z AUTO 14006KT 9999 BKN006/// 03/03 Q1022
EGDM 172050Z AUTO 18005KT 9000 BR FEW039/// 04/03 Q1022 
EGDM 171950Z AUTO 20007KT 9999 SCT033/// SCT038/// 05/03 Q1022  
EGDM 171850Z AUTO 18006KT 9999 SCT041/// BKN130/// 05/03 Q1022  
EGDM 171750Z AUTO 18005KT 9999 FEW038/// 05/03 Q1022
EGDM 171650Z AUTO 20006KT 9999 FEW023/// SCT180/// 06/04 Q1021  
EGDM 171550Z AUTO 21007KT 9999 FEW021/// BKN046/// 08/04 Q1021  
EGDM 171450Z AUTO 20008KT 9999 BKN035/// 08/04 Q1021
EGDM 171350Z AUTO 20010KT 9999 SCT022/// BKN030/// 09/03 Q1021  
EGDM 171250Z AUTO 21008KT 9999 BKN026/// SCT060/// 09/03 Q1022  
EGDM 171150Z AUTO 21008KT 9999 FEW015/// 08/03 Q1022
EGDM 171050Z AUTO 21005KT 9999 BKN060/// 07/04 Q1021
EGDM 170950Z AUTO 16003KT 9999 NCD 05/03 Q1021  
EGDM 170850Z AUTO 13002KT 9000 SCT090/// 03/02 Q1021
EGDM 170750Z AUTO 09004KT 0200 FG SCT080/// 01/00 Q1021 
EGDM 170650Z AUTO 07006KT 0300 FG BKN070/// 01/01 Q1020 
EGDM 170550Z AUTO 07005KT 3700 BR SCT110/// 01/01 Q1020 
EGDM 170450Z AUTO 07007KT 4900 BR BKN120/// 01/01 Q1020 
EGDM 170350Z AUTO 08006KT 3600 BR SCT120/// BKN180/// 02/01 Q1020   
EGDM 170250Z AUTO 10005KT 7000 BR BKN120/// 02/01 Q1020